sensor_id;sensor_type;location;lat;lon;timestamp;temperature;humidity
5304;DHT22;2674;49.722;10.892;2023-04-15T00:00:10;5.10;99.90
5304;DHT22;2674;49.722;10.892;2023-04-15T00:02:36;5.10;99.90
5304;DHT22;2674;49.722;10.892;2023-04-15T00:05:03;5.00;99.90
5304;DHT22;2674;49.722;10.892;2023-04-15T00:07:29;5.00;99.90
5304;DHT22;2674;49.722;10.892;2023-04-15T00:09:56;5.00;99.90
5304;DHT22;2674;49.722;10.892;2023-04-15T00:12:26;4.90;99.90
5304;DHT22;2674;49.722;10.892;2023-04-15T00:14:52;4.90;99.90
5304;DHT22;2674;49.722;10.892;2023-04-15T00:17:19;4.90;99.90
5304;DHT22;2674;49.722;10.892;2023-04-15T00:19:45;4.90;99.90
5304;DHT22;2674;49.722;10.892;2023-04-15T00:22:11;4.80;99.90
5304;DHT22;2674;49.722;10.892;2023-04-15T00:24:38;4.80;99.90
5304;DHT22;2674;49.722;10.892;2023-04-15T00:27:04;4.80;99.90
5304;DHT22;2674;49.722;10.892;2023-04-15T00:29:30;4.80;99.90
5304;DHT22;2674;49.722;10.892;2023-04-15T00:31:56;4.80;99.90
5304;DHT22;2674;49.722;10.892;2023-04-15T00:34:26;4.80;99.90
5304;DHT22;2674;49.722;10.892;2023-04-15T00:36:52;4.80;99.90
5304;DHT22;2674;49.722;10.892;2023-04-15T00:39:18;4.80;99.90
5304;DHT22;2674;49.722;10.892;2023-04-15T00:41:44;4.90;99.90
5304;DHT22;2674;49.722;10.892;2023-04-15T00:44:10;4.90;99.90
5304;DHT22;2674;49.722;10.892;2023-04-15T00:46:37;4.90;99.90
5304;DHT22;2674;49.722;10.892;2023-04-15T00:49:05;4.90;99.90
5304;DHT22;2674;49.722;10.892;2023-04-15T00:51:32;4.90;99.90
5304;DHT22;2674;49.722;10.892;2023-04-15T00:54:03;4.90;99.90
5304;DHT22;2674;49.722;10.892;2023-04-15T00:56:30;4.90;99.90
5304;DHT22;2674;49.722;10.892;2023-04-15T00:58:57;4.90;99.90
5304;DHT22;2674;49.722;10.892;2023-04-15T01:01:25;4.90;99.90
5304;DHT22;2674;49.722;10.892;2023-04-15T01:03:51;4.90;99.90
5304;DHT22;2674;49.722;10.892;2023-04-15T01:06:17;4.90;99.90
5304;DHT22;2674;49.722;10.892;2023-04-15T01:08:43;5.00;99.90
5304;DHT22;2674;49.722;10.892;2023-04-15T01:11:12;5.00;99.90
5304;DHT22;2674;49.722;10.892;2023-04-15T01:13:39;5.00;99.90
5304;DHT22;2674;49.722;10.892;2023-04-15T01:16:07;5.00;99.90
5304;DHT22;2674;49.722;10.892;2023-04-15T01:18:33;5.00;99.90
5304;DHT22;2674;49.722;10.892;2023-04-15T01:21:00;5.00;99.90
5304;DHT22;2674;49.722;10.892;2023-04-15T01:23:28;5.00;99.90
5304;DHT22;2674;49.722;10.892;2023-04-15T01:25:55;5.00;99.90
5304;DHT22;2674;49.722;10.892;2023-04-15T01:28:21;5.00;99.90
5304;DHT22;2674;49.722;10.892;2023-04-15T01:30:47;5.00;99.90
5304;DHT22;2674;49.722;10.892;2023-04-15T01:33:13;5.10;99.90
5304;DHT22;2674;49.722;10.892;2023-04-15T01:35:39;5.00;99.90
5304;DHT22;2674;49.722;10.892;2023-04-15T01:38:08;5.00;99.90
5304;DHT22;2674;49.722;10.892;2023-04-15T01:40:34;5.00;99.90
5304;DHT22;2674;49.722;10.892;2023-04-15T01:43:00;5.10;99.90
5304;DHT22;2674;49.722;10.892;2023-04-15T01:45:27;5.10;99.90
5304;DHT22;2674;49.722;10.892;2023-04-15T01:47:53;5.10;99.90
5304;DHT22;2674;49.722;10.892;2023-04-15T01:50:19;5.10;99.90
5304;DHT22;2674;49.722;10.892;2023-04-15T01:52:45;5.10;99.90
5304;DHT22;2674;49.722;10.892;2023-04-15T01:55:12;5.10;99.90
5304;DHT22;2674;49.722;10.892;2023-04-15T01:57:38;5.10;99.90
5304;DHT22;2674;49.722;10.892;2023-04-15T02:00:05;5.10;99.90
5304;DHT22;2674;49.722;10.892;2023-04-15T02:02:34;5.20;99.90
5304;DHT22;2674;49.722;10.892;2023-04-15T02:05:00;5.20;99.90
5304;DHT22;2674;49.722;10.892;2023-04-15T02:07:26;5.20;99.90
5304;DHT22;2674;49.722;10.892;2023-04-15T02:09:53;5.20;99.90
5304;DHT22;2674;49.722;10.892;2023-04-15T02:12:19;5.20;99.90
5304;DHT22;2674;49.722;10.892;2023-04-15T02:14:45;5.30;99.90
5304;DHT22;2674;49.722;10.892;2023-04-15T02:17:11;5.30;99.90
5304;DHT22;2674;49.722;10.892;2023-04-15T02:19:37;5.30;99.90
5304;DHT22;2674;49.722;10.892;2023-04-15T02:22:04;5.30;99.90
5304;DHT22;2674;49.722;10.892;2023-04-15T02:24:32;5.30;99.90
5304;DHT22;2674;49.722;10.892;2023-04-15T02:26:57;5.30;99.90
5304;DHT22;2674;49.722;10.892;2023-04-15T02:29:23;5.30;99.90
5304;DHT22;2674;49.722;10.892;2023-04-15T02:31:49;5.30;99.90
5304;DHT22;2674;49.722;10.892;2023-04-15T02:34:15;5.40;99.90
5304;DHT22;2674;49.722;10.892;2023-04-15T02:36:41;5.40;99.90
5304;DHT22;2674;49.722;10.892;2023-04-15T02:39:07;5.40;99.90
5304;DHT22;2674;49.722;10.892;2023-04-15T02:41:33;5.40;99.90
5304;DHT22;2674;49.722;10.892;2023-04-15T02:43:59;5.40;99.90
5304;DHT22;2674;49.722;10.892;2023-04-15T02:46:25;5.40;99.90
5304;DHT22;2674;49.722;10.892;2023-04-15T02:48:51;5.40;99.90
5304;DHT22;2674;49.722;10.892;2023-04-15T02:51:21;5.40;99.90
5304;DHT22;2674;49.722;10.892;2023-04-15T02:53:48;5.40;99.90
5304;DHT22;2674;49.722;10.892;2023-04-15T02:56:14;5.30;99.90
5304;DHT22;2674;49.722;10.892;2023-04-15T02:58:42;5.30;99.90
5304;DHT22;2674;49.722;10.892;2023-04-15T03:01:09;5.30;99.90
5304;DHT22;2674;49.722;10.892;2023-04-15T03:03:35;5.30;99.90
5304;DHT22;2674;49.722;10.892;2023-04-15T03:06:01;5.30;99.90
5304;DHT22;2674;49.722;10.892;2023-04-15T03:08:27;5.30;99.90
5304;DHT22;2674;49.722;10.892;2023-04-15T03:10:52;5.30;99.90
5304;DHT22;2674;49.722;10.892;2023-04-15T03:13:19;5.30;99.90
5304;DHT22;2674;49.722;10.892;2023-04-15T03:15:46;5.30;99.90
5304;DHT22;2674;49.722;10.892;2023-04-15T03:18:12;5.60;99.90
5304;DHT22;2674;49.722;10.892;2023-04-15T03:20:37;5.30;99.90
5304;DHT22;2674;49.722;10.892;2023-04-15T03:23:03;5.30;99.90
5304;DHT22;2674;49.722;10.892;2023-04-15T03:25:29;5.30;99.90
5304;DHT22;2674;49.722;10.892;2023-04-15T03:27:55;5.30;99.90
5304;DHT22;2674;49.722;10.892;2023-04-15T03:30:21;5.30;99.90
5304;DHT22;2674;49.722;10.892;2023-04-15T03:32:47;5.20;99.90
5304;DHT22;2674;49.722;10.892;2023-04-15T03:35:13;5.20;99.90
5304;DHT22;2674;49.722;10.892;2023-04-15T03:37:38;4.80;99.90
5304;DHT22;2674;49.722;10.892;2023-04-15T03:40:05;5.20;99.90
5304;DHT22;2674;49.722;10.892;2023-04-15T03:42:31;5.20;99.90
5304;DHT22;2674;49.722;10.892;2023-04-15T03:44:57;5.20;99.90
5304;DHT22;2674;49.722;10.892;2023-04-15T03:47:22;5.20;99.90
5304;DHT22;2674;49.722;10.892;2023-04-15T03:49:48;5.20;99.90
5304;DHT22;2674;49.722;10.892;2023-04-15T03:52:14;5.10;99.90
5304;DHT22;2674;49.722;10.892;2023-04-15T03:54:40;5.10;99.90
5304;DHT22;2674;49.722;10.892;2023-04-15T03:57:06;5.10;99.90
5304;DHT22;2674;49.722;10.892;2023-04-15T03:59:32;5.10;99.90
5304;DHT22;2674;49.722;10.892;2023-04-15T04:01:58;5.00;99.90
5304;DHT22;2674;49.722;10.892;2023-04-15T04:04:23;5.10;99.90
5304;DHT22;2674;49.722;10.892;2023-04-15T04:06:49;5.10;99.90
5304;DHT22;2674;49.722;10.892;2023-04-15T04:09:15;5.10;99.90
5304;DHT22;2674;49.722;10.892;2023-04-15T04:11:41;5.10;99.90
5304;DHT22;2674;49.722;10.892;2023-04-15T04:14:07;5.10;99.90
5304;DHT22;2674;49.722;10.892;2023-04-15T04:16:32;4.80;99.90
5304;DHT22;2674;49.722;10.892;2023-04-15T04:18:58;5.10;99.90
5304;DHT22;2674;49.722;10.892;2023-04-15T04:21:24;5.20;99.90
5304;DHT22;2674;49.722;10.892;2023-04-15T04:23:51;5.20;99.90
5304;DHT22;2674;49.722;10.892;2023-04-15T04:26:17;5.20;99.90
5304;DHT22;2674;49.722;10.892;2023-04-15T04:28:42;5.20;99.90
5304;DHT22;2674;49.722;10.892;2023-04-15T04:31:08;5.20;99.90
5304;DHT22;2674;49.722;10.892;2023-04-15T04:33:34;5.30;99.90
5304;DHT22;2674;49.722;10.892;2023-04-15T04:36:00;5.30;99.90
5304;DHT22;2674;49.722;10.892;2023-04-15T04:38:26;5.30;99.90
5304;DHT22;2674;49.722;10.892;2023-04-15T04:40:52;5.30;99.90
5304;DHT22;2674;49.722;10.892;2023-04-15T04:43:18;5.30;99.90
5304;DHT22;2674;49.722;10.892;2023-04-15T04:45:44;5.30;99.90
5304;DHT22;2674;49.722;10.892;2023-04-15T04:48:10;5.30;99.90
5304;DHT22;2674;49.722;10.892;2023-04-15T04:50:36;5.40;99.90
5304;DHT22;2674;49.722;10.892;2023-04-15T04:53:01;5.40;99.90
5304;DHT22;2674;49.722;10.892;2023-04-15T04:55:28;5.40;99.90
5304;DHT22;2674;49.722;10.892;2023-04-15T04:57:54;5.50;99.90
5304;DHT22;2674;49.722;10.892;2023-04-15T05:00:20;5.50;99.90
5304;DHT22;2674;49.722;10.892;2023-04-15T05:02:46;5.50;99.90
5304;DHT22;2674;49.722;10.892;2023-04-15T05:05:11;5.50;99.90
5304;DHT22;2674;49.722;10.892;2023-04-15T05:07:37;5.50;99.90
5304;DHT22;2674;49.722;10.892;2023-04-15T05:10:04;5.60;99.90
5304;DHT22;2674;49.722;10.892;2023-04-15T05:12:31;5.60;99.90
5304;DHT22;2674;49.722;10.892;2023-04-15T05:14:57;5.60;99.90
5304;DHT22;2674;49.722;10.892;2023-04-15T05:17:22;5.70;99.90
5304;DHT22;2674;49.722;10.892;2023-04-15T05:19:48;5.70;99.90
5304;DHT22;2674;49.722;10.892;2023-04-15T05:22:14;5.70;99.90
5304;DHT22;2674;49.722;10.892;2023-04-15T05:24:40;5.80;99.90
5304;DHT22;2674;49.722;10.892;2023-04-15T05:27:06;5.80;99.90
5304;DHT22;2674;49.722;10.892;2023-04-15T05:29:33;5.80;99.90
5304;DHT22;2674;49.722;10.892;2023-04-15T05:31:59;5.90;99.90
5304;DHT22;2674;49.722;10.892;2023-04-15T05:34:25;5.90;99.90
5304;DHT22;2674;49.722;10.892;2023-04-15T05:36:51;5.90;99.90
5304;DHT22;2674;49.722;10.892;2023-04-15T05:39:17;6.00;99.90
5304;DHT22;2674;49.722;10.892;2023-04-15T05:41:43;6.00;99.90
5304;DHT22;2674;49.722;10.892;2023-04-15T05:44:09;5.80;99.90
5304;DHT22;2674;49.722;10.892;2023-04-15T05:46:35;6.10;99.90
5304;DHT22;2674;49.722;10.892;2023-04-15T05:49:01;6.20;99.90
5304;DHT22;2674;49.722;10.892;2023-04-15T05:51:27;6.20;99.90
5304;DHT22;2674;49.722;10.892;2023-04-15T05:53:53;6.30;99.90
5304;DHT22;2674;49.722;10.892;2023-04-15T05:56:18;6.30;99.90
5304;DHT22;2674;49.722;10.892;2023-04-15T05:58:45;6.40;99.90
5304;DHT22;2674;49.722;10.892;2023-04-15T06:01:32;6.40;99.90
5304;DHT22;2674;49.722;10.892;2023-04-15T06:04:07;6.50;99.90
5304;DHT22;2674;49.722;10.892;2023-04-15T06:06:34;6.50;99.90
5304;DHT22;2674;49.722;10.892;2023-04-15T06:08:59;6.50;99.90
5304;DHT22;2674;49.722;10.892;2023-04-15T06:11:25;6.60;99.90
5304;DHT22;2674;49.722;10.892;2023-04-15T06:13:51;6.60;99.90
5304;DHT22;2674;49.722;10.892;2023-04-15T06:16:17;6.60;99.90
5304;DHT22;2674;49.722;10.892;2023-04-15T06:18:43;6.60;99.90
5304;DHT22;2674;49.722;10.892;2023-04-15T06:21:09;6.60;99.90
5304;DHT22;2674;49.722;10.892;2023-04-15T06:23:35;6.60;99.90
5304;DHT22;2674;49.722;10.892;2023-04-15T06:26:01;6.70;99.90
5304;DHT22;2674;49.722;10.892;2023-04-15T06:28:28;6.70;99.90
5304;DHT22;2674;49.722;10.892;2023-04-15T06:30:54;6.70;99.90
5304;DHT22;2674;49.722;10.892;2023-04-15T06:33:20;6.80;99.90
5304;DHT22;2674;49.722;10.892;2023-04-15T06:35:46;6.80;99.90
5304;DHT22;2674;49.722;10.892;2023-04-15T06:38:12;6.80;99.90
5304;DHT22;2674;49.722;10.892;2023-04-15T06:40:39;6.80;99.90
5304;DHT22;2674;49.722;10.892;2023-04-15T06:43:05;6.80;99.90
5304;DHT22;2674;49.722;10.892;2023-04-15T06:45:31;6.90;99.90
5304;DHT22;2674;49.722;10.892;2023-04-15T06:47:57;6.80;99.90
5304;DHT22;2674;49.722;10.892;2023-04-15T06:50:22;6.90;99.90
5304;DHT22;2674;49.722;10.892;2023-04-15T06:52:48;6.90;99.90
5304;DHT22;2674;49.722;10.892;2023-04-15T06:55:15;6.90;99.90
5304;DHT22;2674;49.722;10.892;2023-04-15T06:57:41;6.90;99.90
5304;DHT22;2674;49.722;10.892;2023-04-15T07:00:07;6.90;99.90
5304;DHT22;2674;49.722;10.892;2023-04-15T07:02:35;6.90;99.90
5304;DHT22;2674;49.722;10.892;2023-04-15T07:05:02;7.00;99.90
5304;DHT22;2674;49.722;10.892;2023-04-15T07:07:29;7.20;99.90
5304;DHT22;2674;49.722;10.892;2023-04-15T07:09:55;7.30;99.90
5304;DHT22;2674;49.722;10.892;2023-04-15T07:12:20;7.40;99.90
5304;DHT22;2674;49.722;10.892;2023-04-15T07:14:46;7.40;99.90
5304;DHT22;2674;49.722;10.892;2023-04-15T07:17:12;7.50;99.90
5304;DHT22;2674;49.722;10.892;2023-04-15T07:19:38;7.50;99.90
5304;DHT22;2674;49.722;10.892;2023-04-15T07:22:04;7.40;99.90
5304;DHT22;2674;49.722;10.892;2023-04-15T07:24:29;7.20;99.90
5304;DHT22;2674;49.722;10.892;2023-04-15T07:26:56;7.10;99.90
5304;DHT22;2674;49.722;10.892;2023-04-15T07:29:23;7.00;99.90
5304;DHT22;2674;49.722;10.892;2023-04-15T07:31:48;6.90;99.90
5304;DHT22;2674;49.722;10.892;2023-04-15T07:34:18;6.80;99.90
5304;DHT22;2674;49.722;10.892;2023-04-15T07:36:44;6.80;99.90
5304;DHT22;2674;49.722;10.892;2023-04-15T07:39:10;6.80;99.90
5304;DHT22;2674;49.722;10.892;2023-04-15T07:41:36;6.80;99.90
5304;DHT22;2674;49.722;10.892;2023-04-15T07:44:02;6.80;99.90
5304;DHT22;2674;49.722;10.892;2023-04-15T07:46:28;6.70;99.90
5304;DHT22;2674;49.722;10.892;2023-04-15T07:48:54;6.70;99.90
5304;DHT22;2674;49.722;10.892;2023-04-15T07:51:20;6.70;99.90
5304;DHT22;2674;49.722;10.892;2023-04-15T07:53:46;6.70;99.90
5304;DHT22;2674;49.722;10.892;2023-04-15T07:56:13;6.70;99.90
5304;DHT22;2674;49.722;10.892;2023-04-15T07:58:38;6.80;99.90
5304;DHT22;2674;49.722;10.892;2023-04-15T08:01:05;6.80;99.90
5304;DHT22;2674;49.722;10.892;2023-04-15T08:03:31;6.90;99.90
5304;DHT22;2674;49.722;10.892;2023-04-15T08:05:57;6.90;99.90
5304;DHT22;2674;49.722;10.892;2023-04-15T08:08:26;7.00;99.90
5304;DHT22;2674;49.722;10.892;2023-04-15T08:10:52;7.00;99.90
5304;DHT22;2674;49.722;10.892;2023-04-15T08:13:18;7.10;99.90
5304;DHT22;2674;49.722;10.892;2023-04-15T08:15:45;7.10;99.90
5304;DHT22;2674;49.722;10.892;2023-04-15T08:18:11;7.20;99.90
5304;DHT22;2674;49.722;10.892;2023-04-15T08:20:36;7.10;99.90
5304;DHT22;2674;49.722;10.892;2023-04-15T08:23:03;7.10;99.90
5304;DHT22;2674;49.722;10.892;2023-04-15T08:25:29;7.20;99.90
5304;DHT22;2674;49.722;10.892;2023-04-15T08:27:55;7.20;99.90
5304;DHT22;2674;49.722;10.892;2023-04-15T08:30:24;7.20;99.90
5304;DHT22;2674;49.722;10.892;2023-04-15T08:32:49;7.20;99.90
5304;DHT22;2674;49.722;10.892;2023-04-15T08:35:15;7.20;99.90
5304;DHT22;2674;49.722;10.892;2023-04-15T08:37:41;7.30;99.90
5304;DHT22;2674;49.722;10.892;2023-04-15T08:40:08;7.30;99.90
5304;DHT22;2674;49.722;10.892;2023-04-15T08:42:40;7.30;99.90
5304;DHT22;2674;49.722;10.892;2023-04-15T08:45:09;7.30;99.90
5304;DHT22;2674;49.722;10.892;2023-04-15T08:47:37;7.20;99.90
5304;DHT22;2674;49.722;10.892;2023-04-15T08:50:08;7.20;99.90
5304;DHT22;2674;49.722;10.892;2023-04-15T08:52:35;7.20;99.90
5304;DHT22;2674;49.722;10.892;2023-04-15T08:55:01;7.20;99.90
5304;DHT22;2674;49.722;10.892;2023-04-15T08:57:28;7.10;99.90
5304;DHT22;2674;49.722;10.892;2023-04-15T08:59:57;7.10;99.90
5304;DHT22;2674;49.722;10.892;2023-04-15T09:02:24;7.10;99.90
5304;DHT22;2674;49.722;10.892;2023-04-15T09:04:52;7.10;99.90
5304;DHT22;2674;49.722;10.892;2023-04-15T09:07:18;7.00;99.90
5304;DHT22;2674;49.722;10.892;2023-04-15T09:09:44;7.00;99.90
5304;DHT22;2674;49.722;10.892;2023-04-15T09:12:10;7.00;99.90
5304;DHT22;2674;49.722;10.892;2023-04-15T09:14:41;7.00;99.90
5304;DHT22;2674;49.722;10.892;2023-04-15T09:17:09;7.00;99.90
5304;DHT22;2674;49.722;10.892;2023-04-15T09:19:35;7.00;99.90
5304;DHT22;2674;49.722;10.892;2023-04-15T09:22:01;7.00;99.90
5304;DHT22;2674;49.722;10.892;2023-04-15T09:24:35;7.00;99.90
5304;DHT22;2674;49.722;10.892;2023-04-15T09:27:06;7.00;99.90
5304;DHT22;2674;49.722;10.892;2023-04-15T09:29:32;7.10;99.90
5304;DHT22;2674;49.722;10.892;2023-04-15T09:32:18;7.10;99.90
5304;DHT22;2674;49.722;10.892;2023-04-15T09:34:45;7.10;99.90
5304;DHT22;2674;49.722;10.892;2023-04-15T09:37:12;7.10;99.90
5304;DHT22;2674;49.722;10.892;2023-04-15T09:39:52;7.10;99.90
5304;DHT22;2674;49.722;10.892;2023-04-15T09:42:18;7.10;99.90
5304;DHT22;2674;49.722;10.892;2023-04-15T09:44:51;7.20;99.90
5304;DHT22;2674;49.722;10.892;2023-04-15T09:47:30;7.20;99.90
5304;DHT22;2674;49.722;10.892;2023-04-15T09:49:57;7.00;99.90
5304;DHT22;2674;49.722;10.892;2023-04-15T09:52:23;7.30;99.90
5304;DHT22;2674;49.722;10.892;2023-04-15T09:54:52;7.40;99.90
5304;DHT22;2674;49.722;10.892;2023-04-15T09:57:20;7.50;99.90
5304;DHT22;2674;49.722;10.892;2023-04-15T09:59:47;7.50;99.90
5304;DHT22;2674;49.722;10.892;2023-04-15T10:02:13;7.60;99.90
5304;DHT22;2674;49.722;10.892;2023-04-15T10:04:40;7.70;99.90
5304;DHT22;2674;49.722;10.892;2023-04-15T10:07:11;7.70;99.90
5304;DHT22;2674;49.722;10.892;2023-04-15T10:09:40;7.70;99.90
5304;DHT22;2674;49.722;10.892;2023-04-15T10:12:07;7.70;99.90
5304;DHT22;2674;49.722;10.892;2023-04-15T10:14:34;7.70;99.90
5304;DHT22;2674;49.722;10.892;2023-04-15T10:17:03;7.70;99.90
5304;DHT22;2674;49.722;10.892;2023-04-15T10:19:36;7.60;99.90
5304;DHT22;2674;49.722;10.892;2023-04-15T10:22:02;7.60;99.90
5304;DHT22;2674;49.722;10.892;2023-04-15T10:24:30;7.70;99.90
5304;DHT22;2674;49.722;10.892;2023-04-15T10:26:57;7.60;99.90
5304;DHT22;2674;49.722;10.892;2023-04-15T10:29:26;7.50;99.90
5304;DHT22;2674;49.722;10.892;2023-04-15T10:31:56;7.40;99.90
5304;DHT22;2674;49.722;10.892;2023-04-15T10:34:23;7.40;99.90
5304;DHT22;2674;49.722;10.892;2023-04-15T10:36:50;7.50;99.90
5304;DHT22;2674;49.722;10.892;2023-04-15T10:39:46;7.50;99.90
5304;DHT22;2674;49.722;10.892;2023-04-15T10:42:17;7.50;99.90
5304;DHT22;2674;49.722;10.892;2023-04-15T10:44:48;7.50;99.90
5304;DHT22;2674;49.722;10.892;2023-04-15T10:47:17;7.50;99.90
5304;DHT22;2674;49.722;10.892;2023-04-15T10:49:55;7.50;99.90
5304;DHT22;2674;49.722;10.892;2023-04-15T10:52:24;7.60;99.90
5304;DHT22;2674;49.722;10.892;2023-04-15T10:57:38;7.60;99.90
5304;DHT22;2674;49.722;10.892;2023-04-15T11:05:13;8.10;99.90
5304;DHT22;2674;49.722;10.892;2023-04-15T11:12:40;8.20;99.90
5304;DHT22;2674;49.722;10.892;2023-04-15T11:15:29;8.10;99.90
5304;DHT22;2674;49.722;10.892;2023-04-15T11:17:56;8.20;99.90
5304;DHT22;2674;49.722;10.892;2023-04-15T11:20:25;8.10;99.90
5304;DHT22;2674;49.722;10.892;2023-04-15T11:22:52;8.20;99.90
5304;DHT22;2674;49.722;10.892;2023-04-15T11:25:30;8.10;99.90
5304;DHT22;2674;49.722;10.892;2023-04-15T11:27:56;8.00;99.90
5304;DHT22;2674;49.722;10.892;2023-04-15T11:30:27;8.00;99.90
5304;DHT22;2674;49.722;10.892;2023-04-15T11:32:59;8.20;99.90
5304;DHT22;2674;49.722;10.892;2023-04-15T11:35:24;8.40;99.90
5304;DHT22;2674;49.722;10.892;2023-04-15T11:37:51;8.60;99.90
5304;DHT22;2674;49.722;10.892;2023-04-15T11:40:22;8.70;99.90
5304;DHT22;2674;49.722;10.892;2023-04-15T11:43:04;8.70;99.90
5304;DHT22;2674;49.722;10.892;2023-04-15T11:45:30;8.90;99.90
5304;DHT22;2674;49.722;10.892;2023-04-15T11:48:05;8.80;99.90
5304;DHT22;2674;49.722;10.892;2023-04-15T11:50:31;8.80;99.90
5304;DHT22;2674;49.722;10.892;2023-04-15T11:52:59;8.80;99.90
5304;DHT22;2674;49.722;10.892;2023-04-15T11:55:26;8.70;99.90
5304;DHT22;2674;49.722;10.892;2023-04-15T11:58:11;8.60;99.90
5304;DHT22;2674;49.722;10.892;2023-04-15T12:00:39;8.60;99.90
5304;DHT22;2674;49.722;10.892;2023-04-15T12:03:24;8.60;99.90
5304;DHT22;2674;49.722;10.892;2023-04-15T12:08:58;8.60;99.90
5304;DHT22;2674;49.722;10.892;2023-04-15T12:14:30;8.50;99.90
5304;DHT22;2674;49.722;10.892;2023-04-15T12:16:58;8.50;99.90
5304;DHT22;2674;49.722;10.892;2023-04-15T12:19:36;8.60;99.90
5304;DHT22;2674;49.722;10.892;2023-04-15T12:22:08;8.60;99.90
5304;DHT22;2674;49.722;10.892;2023-04-15T12:24:36;8.70;99.90
5304;DHT22;2674;49.722;10.892;2023-04-15T12:27:09;8.70;99.90
5304;DHT22;2674;49.722;10.892;2023-04-15T12:29:37;8.70;99.90
5304;DHT22;2674;49.722;10.892;2023-04-15T12:32:07;8.60;99.90
5304;DHT22;2674;49.722;10.892;2023-04-15T12:34:35;8.60;99.90
5304;DHT22;2674;49.722;10.892;2023-04-15T12:37:04;8.60;99.90
5304;DHT22;2674;49.722;10.892;2023-04-15T12:39:41;8.70;99.90
5304;DHT22;2674;49.722;10.892;2023-04-15T12:42:07;8.70;99.90
5304;DHT22;2674;49.722;10.892;2023-04-15T12:44:34;8.60;99.90
5304;DHT22;2674;49.722;10.892;2023-04-15T12:49:30;8.50;99.90
5304;DHT22;2674;49.722;10.892;2023-04-15T12:51:58;8.50;99.90
5304;DHT22;2674;49.722;10.892;2023-04-15T12:54:27;8.50;99.90
5304;DHT22;2674;49.722;10.892;2023-04-15T12:56:54;8.40;99.90
5304;DHT22;2674;49.722;10.892;2023-04-15T12:59:21;8.30;99.90
5304;DHT22;2674;49.722;10.892;2023-04-15T13:01:48;8.30;99.90
5304;DHT22;2674;49.722;10.892;2023-04-15T13:04:15;8.40;99.90
5304;DHT22;2674;49.722;10.892;2023-04-15T13:06:42;8.40;99.90
5304;DHT22;2674;49.722;10.892;2023-04-15T13:09:08;8.50;99.90
5304;DHT22;2674;49.722;10.892;2023-04-15T13:11:34;8.50;99.90
5304;DHT22;2674;49.722;10.892;2023-04-15T13:14:02;8.50;99.90
5304;DHT22;2674;49.722;10.892;2023-04-15T13:16:28;8.60;99.90
5304;DHT22;2674;49.722;10.892;2023-04-15T13:18:54;8.60;99.90
5304;DHT22;2674;49.722;10.892;2023-04-15T13:21:20;8.60;99.90
5304;DHT22;2674;49.722;10.892;2023-04-15T13:23:47;8.70;99.90
5304;DHT22;2674;49.722;10.892;2023-04-15T13:26:13;8.70;99.90
5304;DHT22;2674;49.722;10.892;2023-04-15T13:28:39;8.70;99.90
5304;DHT22;2674;49.722;10.892;2023-04-15T13:31:05;8.70;99.90
5304;DHT22;2674;49.722;10.892;2023-04-15T13:33:31;8.70;99.90
5304;DHT22;2674;49.722;10.892;2023-04-15T13:35:56;8.70;99.90
5304;DHT22;2674;49.722;10.892;2023-04-15T13:38:23;8.70;99.90
5304;DHT22;2674;49.722;10.892;2023-04-15T13:40:50;8.70;99.90
5304;DHT22;2674;49.722;10.892;2023-04-15T13:43:16;8.60;99.90
5304;DHT22;2674;49.722;10.892;2023-04-15T13:45:42;8.60;99.90
5304;DHT22;2674;49.722;10.892;2023-04-15T13:48:08;8.50;99.90
5304;DHT22;2674;49.722;10.892;2023-04-15T13:50:34;8.40;99.90
5304;DHT22;2674;49.722;10.892;2023-04-15T13:53:00;8.40;99.90
5304;DHT22;2674;49.722;10.892;2023-04-15T13:55:27;8.50;99.90
5304;DHT22;2674;49.722;10.892;2023-04-15T13:57:53;8.50;99.90
5304;DHT22;2674;49.722;10.892;2023-04-15T14:00:20;8.40;99.90
5304;DHT22;2674;49.722;10.892;2023-04-15T14:02:45;8.40;99.90
5304;DHT22;2674;49.722;10.892;2023-04-15T14:05:11;8.40;99.90
5304;DHT22;2674;49.722;10.892;2023-04-15T14:07:37;8.40;99.90
5304;DHT22;2674;49.722;10.892;2023-04-15T14:10:03;8.40;99.90
5304;DHT22;2674;49.722;10.892;2023-04-15T14:12:30;8.40;99.90
5304;DHT22;2674;49.722;10.892;2023-04-15T14:14:55;8.40;99.90
5304;DHT22;2674;49.722;10.892;2023-04-15T14:17:21;8.40;99.90
5304;DHT22;2674;49.722;10.892;2023-04-15T14:19:47;8.40;99.90
5304;DHT22;2674;49.722;10.892;2023-04-15T14:22:13;8.40;99.90
5304;DHT22;2674;49.722;10.892;2023-04-15T14:24:39;8.40;99.90
5304;DHT22;2674;49.722;10.892;2023-04-15T14:27:05;8.40;99.90
5304;DHT22;2674;49.722;10.892;2023-04-15T14:29:33;8.30;99.90
5304;DHT22;2674;49.722;10.892;2023-04-15T14:34:31;8.40;99.90
5304;DHT22;2674;49.722;10.892;2023-04-15T14:36:57;8.40;99.90
5304;DHT22;2674;49.722;10.892;2023-04-15T14:39:23;8.40;99.90
5304;DHT22;2674;49.722;10.892;2023-04-15T14:41:48;8.40;99.90
5304;DHT22;2674;49.722;10.892;2023-04-15T14:44:14;8.40;99.90
5304;DHT22;2674;49.722;10.892;2023-04-15T14:46:40;8.20;99.90
5304;DHT22;2674;49.722;10.892;2023-04-15T14:49:06;8.30;99.90
5304;DHT22;2674;49.722;10.892;2023-04-15T14:51:32;8.20;99.90
5304;DHT22;2674;49.722;10.892;2023-04-15T14:53:58;8.20;99.90
5304;DHT22;2674;49.722;10.892;2023-04-15T14:56:25;8.20;99.90
5304;DHT22;2674;49.722;10.892;2023-04-15T14:58:50;8.10;99.90
5304;DHT22;2674;49.722;10.892;2023-04-15T15:01:19;8.10;99.90
5304;DHT22;2674;49.722;10.892;2023-04-15T15:03:46;8.00;99.90
5304;DHT22;2674;49.722;10.892;2023-04-15T15:06:12;8.00;99.90
5304;DHT22;2674;49.722;10.892;2023-04-15T15:08:38;8.00;99.90
5304;DHT22;2674;49.722;10.892;2023-04-15T15:11:04;8.00;99.90
5304;DHT22;2674;49.722;10.892;2023-04-15T15:13:30;8.00;99.90
5304;DHT22;2674;49.722;10.892;2023-04-15T15:15:56;8.00;99.90
5304;DHT22;2674;49.722;10.892;2023-04-15T15:18:22;8.00;99.90
5304;DHT22;2674;49.722;10.892;2023-04-15T15:20:50;8.10;99.90
5304;DHT22;2674;49.722;10.892;2023-04-15T15:23:16;8.10;99.90
5304;DHT22;2674;49.722;10.892;2023-04-15T15:25:43;8.10;99.90
5304;DHT22;2674;49.722;10.892;2023-04-15T15:28:09;8.20;99.90
5304;DHT22;2674;49.722;10.892;2023-04-15T15:30:35;8.20;99.90
5304;DHT22;2674;49.722;10.892;2023-04-15T15:33:01;8.20;99.90
5304;DHT22;2674;49.722;10.892;2023-04-15T15:35:27;8.20;99.90
5304;DHT22;2674;49.722;10.892;2023-04-15T15:37:53;8.30;99.90
5304;DHT22;2674;49.722;10.892;2023-04-15T15:40:19;8.30;99.90
5304;DHT22;2674;49.722;10.892;2023-04-15T15:42:45;8.40;99.90
5304;DHT22;2674;49.722;10.892;2023-04-15T15:45:14;8.40;99.90
5304;DHT22;2674;49.722;10.892;2023-04-15T15:47:40;8.40;99.90
5304;DHT22;2674;49.722;10.892;2023-04-15T15:50:06;8.40;99.90
5304;DHT22;2674;49.722;10.892;2023-04-15T15:52:32;8.30;99.90
5304;DHT22;2674;49.722;10.892;2023-04-15T15:54:58;8.30;99.90
5304;DHT22;2674;49.722;10.892;2023-04-15T15:57:24;8.30;99.90
5304;DHT22;2674;49.722;10.892;2023-04-15T15:59:50;8.30;99.90
5304;DHT22;2674;49.722;10.892;2023-04-15T16:02:16;8.30;99.90
5304;DHT22;2674;49.722;10.892;2023-04-15T16:04:42;8.30;99.90
5304;DHT22;2674;49.722;10.892;2023-04-15T16:07:09;8.20;99.90
5304;DHT22;2674;49.722;10.892;2023-04-15T16:09:35;8.30;99.90
5304;DHT22;2674;49.722;10.892;2023-04-15T16:12:02;8.30;99.90
5304;DHT22;2674;49.722;10.892;2023-04-15T16:14:28;8.30;99.90
5304;DHT22;2674;49.722;10.892;2023-04-15T16:16:54;8.20;99.90
5304;DHT22;2674;49.722;10.892;2023-04-15T16:19:20;8.20;99.90
5304;DHT22;2674;49.722;10.892;2023-04-15T16:21:46;8.20;99.90
5304;DHT22;2674;49.722;10.892;2023-04-15T16:24:13;8.20;99.90